TimeCST,TemperatureF,Dew PointF,Humidity,Sea Level PressureIn,VisibilityMPH,Wind Direction,Wind SpeedMPH,Gust SpeedMPH,PrecipitationIn,Events,Conditions,WindDirDegrees,DateUTC
12:55 AM,46.8,36.1,67,30.23,10.0,North,5.8,-,N/A,,Partly Cloudy,350,2013-01-06 06:55:00
1:55 AM,45.9,38.1,74,30.24,10.0,Calm,Calm,-,N/A,,Overcast,0,2013-01-06 07:55:00
2:55 AM,46.8,39.0,74,30.24,10.0,Calm,Calm,-,N/A,,Overcast,0,2013-01-06 08:55:00
3:55 AM,47.3,39.2,73,30.21,10.0,North,6.9,-,N/A,,Overcast,10,2013-01-06 09:55:00
4:55 AM,47.7,37.8,69,30.22,10.0,NE,4.6,-,N/A,,Overcast,50,2013-01-06 10:55:00
5:55 AM,48.0,38.1,69,30.22,10.0,NNE,4.6,-,N/A,,Overcast,30,2013-01-06 11:55:00
6:55 AM,48.6,37.8,66,30.24,10.0,North,6.9,-,N/A,,Overcast,10,2013-01-06 12:55:00
7:55 AM,49.5,37.2,63,30.24,10.0,NNE,4.6,-,N/A,,Overcast,30,2013-01-06 13:55:00
8:55 AM,50.5,36.9,59,30.25,10.0,North,9.2,-,N/A,,Mostly Cloudy,10,2013-01-06 14:55:00
9:55 AM,51.3,36.1,56,30.26,10.0,NNE,5.8,-,N/A,,Overcast,30,2013-01-06 15:55:00
10:55 AM,53.2,34.9,50,30.24,10.0,NE,8.1,-,N/A,,Overcast,50,2013-01-06 16:55:00
11:55 AM,53.8,36.3,52,30.22,10.0,North,9.2,-,N/A,,Overcast,350,2013-01-06 17:55:00
12:55 PM,53.2,38.5,57,30.19,10.0,North,10.4,-,N/A,,Overcast,360,2013-01-06 18:55:00
1:55 PM,54.5,35.6,49,30.19,10.0,North,11.5,-,N/A,,Mostly Cloudy,10,2013-01-06 19:55:00
2:01 PM,53.6,37.4,54,30.19,9.0,North,10.4,-,N/A,Rain,Light Rain,10,2013-01-06 20:01:00
2:24 PM,51.8,42.8,71,30.19,10.0,North,6.9,-,N/A,,Mostly Cloudy,350,2013-01-06 20:24:00
2:55 PM,51.6,42.3,70,30.20,10.0,North,9.2,-,0.00,,Mostly Cloudy,350,2013-01-06 20:55:00
3:41 PM,51.8,41.0,67,30.20,10.0,North,4.6,-,N/A,,Overcast,10,2013-01-06 21:41:00
3:55 PM,51.8,41.7,68,30.20,10.0,North,5.8,-,N/A,,Overcast,10,2013-01-06 21:55:00
3:59 PM,51.8,41.0,67,30.20,10.0,North,5.8,-,N/A,,Light Drizzle,360,2013-01-06 21:59:00
4:03 PM,51.8,41.0,67,30.20,10.0,North,4.6,-,N/A,,Light Drizzle,10,2013-01-06 22:03:00
4:21 PM,51.8,42.8,71,30.20,10.0,North,5.8,-,N/A,,Overcast,360,2013-01-06 22:21:00
4:49 PM,50.0,42.8,76,30.20,10.0,North,8.1,-,N/A,Rain,Light Rain,360,2013-01-06 22:49:00
4:55 PM,50.5,43.3,76,30.20,10.0,North,6.9,-,0.00,Rain,Light Rain,360,2013-01-06 22:55:00
5:22 PM,50.0,44.6,82,30.21,10.0,North,5.8,-,N/A,,Mostly Cloudy,10,2013-01-06 23:22:00
5:55 PM,50.0,43.9,79,30.22,10.0,North,3.5,-,0.01,,Overcast,10,2013-01-06 23:55:00
6:55 PM,48.6,43.5,83,30.23,10.0,North,3.5,-,N/A,,Scattered Clouds,350,2013-01-07 00:55:00
8:55 PM,48.2,43.0,82,30.27,10.0,North,5.8,-,N/A,,Mostly Cloudy,350,2013-01-07 02:55:00
9:55 PM,46.8,42.4,85,30.26,10.0,North,6.9,-,N/A,,Clear,360,2013-01-07 03:55:00
10:55 PM,45.9,41.7,85,30.27,10.0,North,8.1,-,N/A,,Clear,360,2013-01-07 04:55:00
11:55 PM,45.5,40.3,82,30.28,10.0,North,8.1,-,N/A,,Clear,10,2013-01-07 05:55:00